sensor_id;sensor_type;location;lat;lon;timestamp;pressure;altitude;pressure_sealevel;temperature;humidity
47154;BME280;32907;41.412;2.164;2023-06-05T00:00:36;100403.94;;;24.42;52.20
47154;BME280;32907;41.412;2.164;2023-06-05T00:03:05;100465.81;;;25.03;51.78
47154;BME280;32907;41.412;2.164;2023-06-05T00:05:33;100493.53;;;25.19;51.46
47154;BME280;32907;41.412;2.164;2023-06-05T00:08:02;100388.28;;;24.51;51.21
47154;BME280;32907;41.412;2.164;2023-06-05T00:10:34;100320.44;;;23.96;51.18
47154;BME280;32907;41.412;2.164;2023-06-05T00:13:03;100354.41;;;24.29;51.17
47154;BME280;32907;41.412;2.164;2023-06-05T00:15:31;100407.16;;;24.44;51.08
47154;BME280;32907;41.412;2.164;2023-06-05T00:18:07;100403.13;;;24.50;51.09
47154;BME280;32907;41.412;2.164;2023-06-05T00:20:38;100299.34;;;23.96;51.33
47154;BME280;32907;41.412;2.164;2023-06-05T00:26:57;100335.91;;;24.00;51.30
47154;BME280;32907;41.412;2.164;2023-06-05T00:29:31;100466.09;;;24.93;50.86
47154;BME280;32907;41.412;2.164;2023-06-05T00:32:00;100343.97;;;24.23;50.89
47154;BME280;32907;41.412;2.164;2023-06-05T00:34:31;100485.81;;;25.04;50.82
47154;BME280;32907;41.412;2.164;2023-06-05T00:36:59;100554.47;;;25.42;50.45
47154;BME280;32907;41.412;2.164;2023-06-05T00:39:28;100309.81;;;23.94;50.68
47154;BME280;32907;41.412;2.164;2023-06-05T00:41:57;100532.53;;;25.42;50.65
47154;BME280;32907;41.412;2.164;2023-06-05T00:44:28;100390.53;;;24.32;51.02
47154;BME280;32907;41.412;2.164;2023-06-05T00:46:57;100298.06;;;23.94;50.49
47154;BME280;32907;41.412;2.164;2023-06-05T00:49:26;100353.47;;;24.08;50.84
47154;BME280;32907;41.412;2.164;2023-06-05T00:52:00;100539.00;;;25.37;50.67
47154;BME280;32907;41.412;2.164;2023-06-05T00:54:29;100418.09;;;24.52;50.94
47154;BME280;32907;41.412;2.164;2023-06-05T00:56:58;100364.91;;;24.27;50.71
47154;BME280;32907;41.412;2.164;2023-06-05T00:59:32;100316.56;;;23.88;50.63
47154;BME280;32907;41.412;2.164;2023-06-05T01:02:03;100330.13;;;24.02;50.54
47154;BME280;32907;41.412;2.164;2023-06-05T01:04:32;100310.78;;;23.98;50.65
47154;BME280;32907;41.412;2.164;2023-06-05T01:07:04;100314.50;;;23.94;50.78
47154;BME280;32907;41.412;2.164;2023-06-05T01:09:37;100411.19;;;24.55;50.68
47154;BME280;32907;41.412;2.164;2023-06-05T01:12:26;100513.16;;;25.38;50.46
47154;BME280;32907;41.412;2.164;2023-06-05T01:14:57;100321.25;;;24.05;50.76
47154;BME280;32907;41.412;2.164;2023-06-05T01:17:30;100310.13;;;24.02;50.71
47154;BME280;32907;41.412;2.164;2023-06-05T01:20:02;100538.69;;;25.39;50.55
47154;BME280;32907;41.412;2.164;2023-06-05T01:22:32;100312.41;;;23.91;51.02
47154;BME280;32907;41.412;2.164;2023-06-05T01:25:08;100311.91;;;23.97;50.78
47154;BME280;32907;41.412;2.164;2023-06-05T01:27:54;100348.94;;;24.12;50.50
47154;BME280;32907;41.412;2.164;2023-06-05T01:30:35;100323.84;;;23.93;50.71
47154;BME280;32907;41.412;2.164;2023-06-05T01:33:13;100450.47;;;24.85;50.91
47154;BME280;32907;41.412;2.164;2023-06-05T01:35:50;100298.72;;;23.91;50.53
47154;BME280;32907;41.412;2.164;2023-06-05T01:38:22;100540.94;;;25.37;50.71
47154;BME280;32907;41.412;2.164;2023-06-05T01:40:52;100525.91;;;25.34;50.55
47154;BME280;32907;41.412;2.164;2023-06-05T01:43:24;100376.69;;;24.37;50.37
47154;BME280;32907;41.412;2.164;2023-06-05T01:45:57;100431.13;;;24.81;50.17
47154;BME280;32907;41.412;2.164;2023-06-05T01:48:27;100317.53;;;24.10;50.06
47154;BME280;32907;41.412;2.164;2023-06-05T01:50:58;100299.50;;;24.00;50.63
47154;BME280;32907;41.412;2.164;2023-06-05T01:53:31;100549.00;;;25.33;50.14
47154;BME280;32907;41.412;2.164;2023-06-05T01:55:59;100514.34;;;25.20;50.16
47154;BME280;32907;41.412;2.164;2023-06-05T01:58:30;100330.25;;;23.97;50.01
47154;BME280;32907;41.412;2.164;2023-06-05T02:01:01;100313.50;;;23.90;50.37
47154;BME280;32907;41.412;2.164;2023-06-05T02:03:31;100360.41;;;24.32;50.21
47154;BME280;32907;41.412;2.164;2023-06-05T02:06:02;100266.97;;;23.64;50.26
47154;BME280;32907;41.412;2.164;2023-06-05T02:08:36;100363.16;;;24.14;50.04
47154;BME280;32907;41.412;2.164;2023-06-05T02:11:08;100311.59;;;23.99;50.27
47154;BME280;32907;41.412;2.164;2023-06-05T02:13:41;100333.81;;;23.97;50.52
47154;BME280;32907;41.412;2.164;2023-06-05T02:16:12;100368.31;;;24.24;50.15
47154;BME280;32907;41.412;2.164;2023-06-05T02:18:44;100376.06;;;24.40;50.39
47154;BME280;32907;41.412;2.164;2023-06-05T02:21:16;100329.94;;;24.16;50.17
47154;BME280;32907;41.412;2.164;2023-06-05T02:23:45;100510.63;;;25.25;50.21
47154;BME280;32907;41.412;2.164;2023-06-05T02:26:13;100397.00;;;24.36;50.03
47154;BME280;32907;41.412;2.164;2023-06-05T02:28:46;100430.16;;;24.77;50.38
47154;BME280;32907;41.412;2.164;2023-06-05T02:31:16;100294.84;;;23.92;49.98
47154;BME280;32907;41.412;2.164;2023-06-05T02:33:46;100423.56;;;24.78;50.03
47154;BME280;32907;41.412;2.164;2023-06-05T02:36:17;100320.91;;;23.98;50.07
47154;BME280;32907;41.412;2.164;2023-06-05T02:38:46;100297.75;;;23.87;50.08
47154;BME280;32907;41.412;2.164;2023-06-05T02:41:18;100505.94;;;25.25;49.98
47154;BME280;32907;41.412;2.164;2023-06-05T02:43:47;100485.31;;;25.19;49.96
47154;BME280;32907;41.412;2.164;2023-06-05T02:46:16;100294.84;;;23.92;49.73
47154;BME280;32907;41.412;2.164;2023-06-05T02:48:46;100264.06;;;23.86;49.64
47154;BME280;32907;41.412;2.164;2023-06-05T02:51:15;100424.38;;;24.70;49.89
47154;BME280;32907;41.412;2.164;2023-06-05T02:53:45;100352.53;;;24.39;50.03
47154;BME280;32907;41.412;2.164;2023-06-05T02:56:17;100257.47;;;23.70;49.70
47154;BME280;32907;41.412;2.164;2023-06-05T02:58:46;100275.03;;;23.86;49.65
47154;BME280;32907;41.412;2.164;2023-06-05T03:01:14;100255.06;;;23.77;49.51
47154;BME280;32907;41.412;2.164;2023-06-05T03:03:46;100385.72;;;24.54;49.84
47154;BME280;32907;41.412;2.164;2023-06-05T03:06:18;100261.50;;;23.81;50.10
47154;BME280;32907;41.412;2.164;2023-06-05T03:08:50;100329.31;;;24.10;49.93
47154;BME280;32907;41.412;2.164;2023-06-05T03:11:20;100273.25;;;23.82;49.87
47154;BME280;32907;41.412;2.164;2023-06-05T03:13:49;100256.81;;;23.82;49.77
47154;BME280;32907;41.412;2.164;2023-06-05T03:16:18;100248.59;;;23.82;49.66
47154;BME280;32907;41.412;2.164;2023-06-05T03:18:51;100258.44;;;23.83;49.45
47154;BME280;32907;41.412;2.164;2023-06-05T03:21:20;100242.66;;;23.71;49.87
47154;BME280;32907;41.412;2.164;2023-06-05T03:23:50;100349.59;;;24.35;49.83
47154;BME280;32907;41.412;2.164;2023-06-05T03:26:19;100386.00;;;24.53;49.69
47154;BME280;32907;41.412;2.164;2023-06-05T03:28:57;100274.88;;;23.83;49.63
47154;BME280;32907;41.412;2.164;2023-06-05T03:31:26;100292.25;;;23.95;49.65
47154;BME280;32907;41.412;2.164;2023-06-05T03:33:57;100278.25;;;23.80;49.81
47154;BME280;32907;41.412;2.164;2023-06-05T03:36:30;100336.56;;;24.32;49.98
47154;BME280;32907;41.412;2.164;2023-06-05T03:39:06;100323.66;;;24.24;49.94
47154;BME280;32907;41.412;2.164;2023-06-05T03:41:38;100345.09;;;24.31;49.71
47154;BME280;32907;41.412;2.164;2023-06-05T03:44:07;100361.22;;;24.32;49.72
47154;BME280;32907;41.412;2.164;2023-06-05T03:46:37;100251.84;;;23.75;49.82
47154;BME280;32907;41.412;2.164;2023-06-05T03:49:09;100311.25;;;24.18;49.77
47154;BME280;32907;41.412;2.164;2023-06-05T03:51:38;100338.66;;;24.35;49.96
47154;BME280;32907;41.412;2.164;2023-06-05T03:54:08;100336.84;;;24.22;49.68
47154;BME280;32907;41.412;2.164;2023-06-05T03:56:37;100439.47;;;24.94;49.86
47154;BME280;32907;41.412;2.164;2023-06-05T03:59:14;100293.88;;;23.88;49.77
47154;BME280;32907;41.412;2.164;2023-06-05T04:01:56;100228.66;;;23.64;49.75
47154;BME280;32907;41.412;2.164;2023-06-05T04:04:26;100338.19;;;24.33;49.53
47154;BME280;32907;41.412;2.164;2023-06-05T04:06:55;100412.09;;;24.76;49.73
47154;BME280;32907;41.412;2.164;2023-06-05T04:09:27;100469.00;;;25.14;49.91
47154;BME280;32907;41.412;2.164;2023-06-05T04:11:57;100394.84;;;24.76;49.66
47154;BME280;32907;41.412;2.164;2023-06-05T04:14:28;100240.25;;;23.78;49.86
47154;BME280;32907;41.412;2.164;2023-06-05T04:16:57;100282.91;;;24.05;49.88
47154;BME280;32907;41.412;2.164;2023-06-05T04:19:30;100329.63;;;24.35;49.77
47154;BME280;32907;41.412;2.164;2023-06-05T04:22:00;100236.22;;;23.76;49.52
47154;BME280;32907;41.412;2.164;2023-06-05T04:24:32;100313.97;;;24.26;49.85
47154;BME280;32907;41.412;2.164;2023-06-05T04:27:00;100232.03;;;23.69;49.42
47154;BME280;32907;41.412;2.164;2023-06-05T04:29:30;100459.81;;;25.19;49.87
47154;BME280;32907;41.412;2.164;2023-06-05T04:32:00;100399.84;;;24.82;49.63
47154;BME280;32907;41.412;2.164;2023-06-05T04:34:29;100323.16;;;24.22;49.56
47154;BME280;32907;41.412;2.164;2023-06-05T04:37:01;100467.53;;;25.17;49.39
47154;BME280;32907;41.412;2.164;2023-06-05T04:39:31;100326.56;;;24.19;49.81
47154;BME280;32907;41.412;2.164;2023-06-05T04:41:59;100303.03;;;24.09;49.85
47154;BME280;32907;41.412;2.164;2023-06-05T04:44:47;100226.56;;;23.69;49.81
47154;BME280;32907;41.412;2.164;2023-06-05T04:47:21;100458.50;;;25.16;50.14
47154;BME280;32907;41.412;2.164;2023-06-05T04:49:51;100389.38;;;24.67;50.01
47154;BME280;32907;41.412;2.164;2023-06-05T04:52:21;100440.78;;;24.96;50.12
47154;BME280;32907;41.412;2.164;2023-06-05T04:54:52;100319.63;;;24.04;49.89
47154;BME280;32907;41.412;2.164;2023-06-05T04:57:25;100369.25;;;24.46;50.24
47154;BME280;32907;41.412;2.164;2023-06-05T04:59:55;100347.19;;;24.25;49.91
47154;BME280;32907;41.412;2.164;2023-06-05T05:02:32;100470.28;;;25.17;50.04
47154;BME280;32907;41.412;2.164;2023-06-05T05:05:01;100274.56;;;23.76;50.08
47154;BME280;32907;41.412;2.164;2023-06-05T05:07:31;100342.84;;;24.41;50.36
47154;BME280;32907;41.412;2.164;2023-06-05T05:10:02;100246.69;;;23.65;50.04
47154;BME280;32907;41.412;2.164;2023-06-05T05:12:34;100372.63;;;24.60;50.25
47154;BME280;32907;41.412;2.164;2023-06-05T05:15:04;100311.91;;;24.23;49.91
47154;BME280;32907;41.412;2.164;2023-06-05T05:17:35;100265.22;;;23.77;50.37
47154;BME280;32907;41.412;2.164;2023-06-05T05:20:11;100285.81;;;24.00;50.35
47154;BME280;32907;41.412;2.164;2023-06-05T05:22:45;100380.22;;;24.63;49.98
47154;BME280;32907;41.412;2.164;2023-06-05T05:25:17;100383.09;;;24.67;50.32
47154;BME280;32907;41.412;2.164;2023-06-05T05:27:45;100371.84;;;24.51;50.18
47154;BME280;32907;41.412;2.164;2023-06-05T05:30:16;100243.47;;;23.71;50.23
47154;BME280;32907;41.412;2.164;2023-06-05T05:32:44;100370.34;;;24.62;50.37
47154;BME280;32907;41.412;2.164;2023-06-05T05:35:13;100261.97;;;23.92;50.64
47154;BME280;32907;41.412;2.164;2023-06-05T05:37:42;100275.50;;;23.97;50.29
47154;BME280;32907;41.412;2.164;2023-06-05T05:40:11;100360.75;;;24.39;50.34
47154;BME280;32907;41.412;2.164;2023-06-05T05:42:41;100362.16;;;24.19;50.27
47154;BME280;32907;41.412;2.164;2023-06-05T05:45:11;100362.97;;;24.19;50.51
47154;BME280;32907;41.412;2.164;2023-06-05T05:47:40;100380.06;;;24.25;50.59
47154;BME280;32907;41.412;2.164;2023-06-05T05:50:09;100211.06;;;23.30;50.58
47154;BME280;32907;41.412;2.164;2023-06-05T05:52:41;100301.47;;;23.82;50.60
47154;BME280;32907;41.412;2.164;2023-06-05T05:55:11;100419.06;;;24.65;50.32
47154;BME280;32907;41.412;2.164;2023-06-05T05:57:44;100346.88;;;24.18;50.30
47154;BME280;32907;41.412;2.164;2023-06-05T06:00:12;100365.38;;;24.29;50.78
47154;BME280;32907;41.412;2.164;2023-06-05T06:02:41;100266.16;;;23.63;50.55
47154;BME280;32907;41.412;2.164;2023-06-05T06:05:10;100385.88;;;24.49;50.72
47154;BME280;32907;41.412;2.164;2023-06-05T06:07:40;100397.47;;;24.38;50.64
47154;BME280;32907;41.412;2.164;2023-06-05T06:10:14;100321.25;;;24.05;50.54
47154;BME280;32907;41.412;2.164;2023-06-05T06:12:44;100355.41;;;24.25;50.68
47154;BME280;32907;41.412;2.164;2023-06-05T06:15:13;100290.97;;;23.93;50.59
47154;BME280;32907;41.412;2.164;2023-06-05T06:17:41;100269.88;;;23.85;50.59
47154;BME280;32907;41.412;2.164;2023-06-05T06:20:12;100344.47;;;24.34;50.37
47154;BME280;32907;41.412;2.164;2023-06-05T06:22:43;100317.06;;;24.16;50.18
47154;BME280;32907;41.412;2.164;2023-06-05T06:25:15;100329.78;;;24.21;49.90
47154;BME280;32907;41.412;2.164;2023-06-05T06:27:51;100353.47;;;24.43;50.05
47154;BME280;32907;41.412;2.164;2023-06-05T06:30:21;100257.00;;;23.77;50.12
47154;BME280;32907;41.412;2.164;2023-06-05T06:32:49;100277.75;;;24.04;49.86
47154;BME280;32907;41.412;2.164;2023-06-05T06:35:21;100366.50;;;24.46;50.01
47154;BME280;32907;41.412;2.164;2023-06-05T06:37:54;100254.72;;;23.87;50.20
47154;BME280;32907;41.412;2.164;2023-06-05T06:40:30;100286.63;;;23.92;49.82
47154;BME280;32907;41.412;2.164;2023-06-05T06:42:59;100274.06;;;23.91;49.70
47154;BME280;32907;41.412;2.164;2023-06-05T06:45:42;100482.53;;;25.28;50.17
47154;BME280;32907;41.412;2.164;2023-06-05T06:48:11;100279.84;;;23.98;50.05
47154;BME280;32907;41.412;2.164;2023-06-05T06:50:40;100437.72;;;24.98;50.02
47154;BME280;32907;41.412;2.164;2023-06-05T06:53:08;100320.41;;;24.22;49.98
47154;BME280;32907;41.412;2.164;2023-06-05T06:55:39;100314.34;;;24.08;49.95
47154;BME280;32907;41.412;2.164;2023-06-05T06:58:08;100495.94;;;25.29;49.81
47154;BME280;32907;41.412;2.164;2023-06-05T07:00:37;100283.91;;;23.92;49.68
47154;BME280;32907;41.412;2.164;2023-06-05T07:03:09;100411.13;;;24.81;49.91
47154;BME280;32907;41.412;2.164;2023-06-05T07:05:38;100474.81;;;25.21;50.10
47154;BME280;32907;41.412;2.164;2023-06-05T07:08:07;100296.78;;;23.91;50.02
47154;BME280;32907;41.412;2.164;2023-06-05T07:10:36;100235.44;;;23.66;49.56
47154;BME280;32907;41.412;2.164;2023-06-05T07:13:10;100277.63;;;23.83;49.84
47154;BME280;32907;41.412;2.164;2023-06-05T07:15:38;100262.00;;;23.83;49.89
47154;BME280;32907;41.412;2.164;2023-06-05T07:18:10;100321.56;;;24.12;49.91
47154;BME280;32907;41.412;2.164;2023-06-05T07:20:39;100486.91;;;25.20;50.20
47154;BME280;32907;41.412;2.164;2023-06-05T07:23:07;100331.22;;;24.27;49.68
47154;BME280;32907;41.412;2.164;2023-06-05T07:25:40;100506.47;;;25.19;49.74
47154;BME280;32907;41.412;2.164;2023-06-05T07:28:09;100410.50;;;24.75;49.55
47154;BME280;32907;41.412;2.164;2023-06-05T07:30:44;100390.19;;;24.59;49.65
47154;BME280;32907;41.412;2.164;2023-06-05T07:33:15;100442.41;;;24.97;49.80
47154;BME280;32907;41.412;2.164;2023-06-05T07:35:59;100411.13;;;24.81;49.88
47154;BME280;32907;41.412;2.164;2023-06-05T07:38:27;100427.41;;;24.95;50.00
47154;BME280;32907;41.412;2.164;2023-06-05T07:40:58;100273.09;;;23.95;50.28
47154;BME280;32907;41.412;2.164;2023-06-05T07:43:29;100467.03;;;25.23;50.09
47154;BME280;32907;41.412;2.164;2023-06-05T07:45:58;100410.66;;;24.79;50.11
47154;BME280;32907;41.412;2.164;2023-06-05T07:48:26;100245.56;;;23.92;50.12
47154;BME280;32907;41.412;2.164;2023-06-05T07:50:54;100353.44;;;24.51;50.57
47154;BME280;32907;41.412;2.164;2023-06-05T07:53:26;100420.25;;;25.02;50.34
47154;BME280;32907;41.412;2.164;2023-06-05T07:55:55;100223.66;;;23.83;50.44
47154;BME280;32907;41.412;2.164;2023-06-05T07:58:26;100422.38;;;24.97;50.34
47154;BME280;32907;41.412;2.164;2023-06-05T08:00:55;100332.50;;;24.38;49.58
47154;BME280;32907;41.412;2.164;2023-06-05T08:03:24;100389.34;;;24.76;49.55
47154;BME280;32907;41.412;2.164;2023-06-05T08:05:54;100260.38;;;23.91;50.13
47154;BME280;32907;41.412;2.164;2023-06-05T08:08:25;100338.47;;;24.32;50.23
47154;BME280;32907;41.412;2.164;2023-06-05T08:10:53;100275.19;;;24.07;52.13
47154;BME280;32907;41.412;2.164;2023-06-05T08:13:21;100453.34;;;25.15;50.07
47154;BME280;32907;41.412;2.164;2023-06-05T08:15:49;100463.47;;;25.31;49.90
47154;BME280;32907;41.412;2.164;2023-06-05T08:18:17;100409.16;;;24.99;49.81
47154;BME280;32907;41.412;2.164;2023-06-05T08:20:45;100479.56;;;25.42;50.28
47154;BME280;32907;41.412;2.164;2023-06-05T08:23:16;100213.97;;;23.86;55.76
47154;BME280;32907;41.412;2.164;2023-06-05T08:25:44;100456.50;;;25.43;53.27
47154;BME280;32907;41.412;2.164;2023-06-05T08:28:12;100305.09;;;24.38;50.85
47154;BME280;32907;41.412;2.164;2023-06-05T08:30:43;100282.88;;;24.22;50.93
47154;BME280;32907;41.412;2.164;2023-06-05T08:33:18;100379.69;;;24.70;51.35
47154;BME280;32907;41.412;2.164;2023-06-05T08:35:47;100312.69;;;24.24;50.78
47154;BME280;32907;41.412;2.164;2023-06-05T08:38:17;100407.69;;;24.93;50.71
47154;BME280;32907;41.412;2.164;2023-06-05T08:40:46;100518.66;;;25.38;50.81
47154;BME280;32907;41.412;2.164;2023-06-05T08:43:21;100268.09;;;23.89;50.49
47154;BME280;32907;41.412;2.164;2023-06-05T08:45:51;100352.47;;;24.30;50.31
47154;BME280;32907;41.412;2.164;2023-06-05T08:48:21;100285.81;;;23.74;50.69
47154;BME280;32907;41.412;2.164;2023-06-05T08:50:50;100294.53;;;23.85;51.54
47154;BME280;32907;41.412;2.164;2023-06-05T08:53:20;100287.59;;;23.87;51.00
47154;BME280;32907;41.412;2.164;2023-06-05T08:55:52;100382.81;;;24.34;50.61
47154;BME280;32907;41.412;2.164;2023-06-05T08:58:23;100313.03;;;23.96;50.83
47154;BME280;32907;41.412;2.164;2023-06-05T09:00:52;100338.66;;;24.09;50.35
47154;BME280;32907;41.412;2.164;2023-06-05T09:03:21;100314.50;;;23.77;50.89
47154;BME280;32907;41.412;2.164;2023-06-05T09:05:49;100409.41;;;24.42;50.57
47154;BME280;32907;41.412;2.164;2023-06-05T09:08:19;100346.06;;;24.00;51.44
47154;BME280;32907;41.412;2.164;2023-06-05T09:10:47;100276.28;;;23.45;51.42
47154;BME280;32907;41.412;2.164;2023-06-05T09:13:16;100295.31;;;23.68;52.83
47154;BME280;32907;41.412;2.164;2023-06-05T09:15:50;100254.53;;;23.58;52.53
47154;BME280;32907;41.412;2.164;2023-06-05T09:18:19;100419.88;;;24.57;51.89
47154;BME280;32907;41.412;2.164;2023-06-05T09:20:53;100259.19;;;23.57;51.47
47154;BME280;32907;41.412;2.164;2023-06-05T09:23:28;100415.03;;;24.54;51.08
47154;BME280;32907;41.412;2.164;2023-06-05T09:25:59;100294.19;;;23.95;50.96
47154;BME280;32907;41.412;2.164;2023-06-05T09:28:30;100323.84;;;23.93;50.76
47154;BME280;32907;41.412;2.164;2023-06-05T09:31:03;100292.72;;;23.89;50.48
47154;BME280;32907;41.412;2.164;2023-06-05T09:33:33;100243.94;;;23.65;49.70
47154;BME280;32907;41.412;2.164;2023-06-05T09:38:38;100391.81;;;24.51;49.77
47154;BME280;32907;41.412;2.164;2023-06-05T09:41:13;100280.97;;;23.80;50.01
47154;BME280;32907;41.412;2.164;2023-06-05T09:43:47;100410.38;;;24.54;50.19
47154;BME280;32907;41.412;2.164;2023-06-05T09:46:18;100411.69;;;24.40;50.00
47154;BME280;32907;41.412;2.164;2023-06-05T09:48:52;100413.75;;;24.60;50.00
47154;BME280;32907;41.412;2.164;2023-06-05T09:51:25;100326.91;;;24.09;50.07
47154;BME280;32907;41.412;2.164;2023-06-05T09:53:57;100430.81;;;24.74;49.78
47154;BME280;32907;41.412;2.164;2023-06-05T09:56:27;100287.91;;;23.86;49.58
47154;BME280;32907;41.412;2.164;2023-06-05T09:58:57;100297.59;;;23.75;49.36
47154;BME280;32907;41.412;2.164;2023-06-05T10:01:26;100497.88;;;25.20;50.15
47154;BME280;32907;41.412;2.164;2023-06-05T10:04:01;100381.19;;;24.50;50.14
47154;BME280;32907;41.412;2.164;2023-06-05T10:06:32;100327.81;;;24.30;50.44
47154;BME280;32907;41.412;2.164;2023-06-05T10:09:01;100312.38;;;24.17;50.81
47154;BME280;32907;41.412;2.164;2023-06-05T10:11:29;100481.78;;;25.48;50.06
47154;BME280;32907;41.412;2.164;2023-06-05T10:13:57;100499.00;;;25.66;49.98
47154;BME280;32907;41.412;2.164;2023-06-05T10:16:27;100470.81;;;25.48;49.89
47154;BME280;32907;41.412;2.164;2023-06-05T10:18:59;100480.38;;;25.42;49.26
47154;BME280;32907;41.412;2.164;2023-06-05T10:21:27;100508.28;;;25.53;49.20
47154;BME280;32907;41.412;2.164;2023-06-05T10:24:05;100442.41;;;25.06;49.25
47154;BME280;32907;41.412;2.164;2023-06-05T10:32:29;100507.22;;;25.36;49.48
47154;BME280;32907;41.412;2.164;2023-06-05T10:40:34;100463.03;;;25.21;48.08
47154;BME280;32907;41.412;2.164;2023-06-05T10:46:32;100498.28;;;25.48;49.20
47154;BME280;32907;41.412;2.164;2023-06-05T10:49:13;100432.38;;;25.10;49.21
47154;BME280;32907;41.412;2.164;2023-06-05T10:51:51;100476.50;;;25.43;49.62
47154;BME280;32907;41.412;2.164;2023-06-05T10:57:01;100501.97;;;25.52;49.89
47154;BME280;32907;41.412;2.164;2023-06-05T10:59:39;100474.81;;;25.21;49.67
47154;BME280;32907;41.412;2.164;2023-06-05T11:07:24;100448.72;;;24.89;49.38
47154;BME280;32907;41.412;2.164;2023-06-05T11:15:12;100495.44;;;25.27;50.78
47154;BME280;32907;41.412;2.164;2023-06-05T11:17:42;100468.69;;;25.16;49.56
47154;BME280;32907;41.412;2.164;2023-06-05T11:20:49;100359.56;;;24.57;49.93
47154;BME280;32907;41.412;2.164;2023-06-05T11:23:20;100368.28;;;24.50;49.67
47154;BME280;32907;41.412;2.164;2023-06-05T11:25:49;100422.53;;;25.00;49.68
47154;BME280;32907;41.412;2.164;2023-06-05T11:28:43;100490.66;;;25.54;49.24
47154;BME280;32907;41.412;2.164;2023-06-05T11:31:12;100470.78;;;25.57;48.28
47154;BME280;32907;41.412;2.164;2023-06-05T11:33:41;100512.38;;;25.85;48.38
47154;BME280;32907;41.412;2.164;2023-06-05T11:36:09;100370.56;;;25.13;47.96
47154;BME280;32907;41.412;2.164;2023-06-05T11:38:52;100471.63;;;25.87;47.37
47154;BME280;32907;41.412;2.164;2023-06-05T11:41:20;100318.69;;;24.81;47.77
47154;BME280;32907;41.412;2.164;2023-06-05T11:43:48;100328.81;;;24.90;47.89
47154;BME280;32907;41.412;2.164;2023-06-05T11:46:35;100389.25;;;25.49;47.43
47154;BME280;32907;41.412;2.164;2023-06-05T11:49:04;100432.75;;;25.76;47.53
47154;BME280;32907;41.412;2.164;2023-06-05T11:51:33;100481.66;;;26.12;47.45
47154;BME280;32907;41.412;2.164;2023-06-05T11:54:02;100492.19;;;26.31;47.23
47154;BME280;32907;41.412;2.164;2023-06-05T11:56:32;100495.41;;;26.33;46.81
47154;BME280;32907;41.412;2.164;2023-06-05T11:59:00;100458.06;;;26.11;47.10
47154;BME280;32907;41.412;2.164;2023-06-05T12:01:28;100479.91;;;26.29;46.83
47154;BME280;32907;41.412;2.164;2023-06-05T12:04:06;100477.63;;;26.39;46.26
47154;BME280;32907;41.412;2.164;2023-06-05T12:06:39;100473.72;;;26.40;45.75
47154;BME280;32907;41.412;2.164;2023-06-05T12:09:12;100409.78;;;26.02;46.48
47154;BME280;32907;41.412;2.164;2023-06-05T12:11:45;100444.31;;;26.32;46.63
47154;BME280;32907;41.412;2.164;2023-06-05T12:14:28;100411.34;;;26.11;46.31
47154;BME280;32907;41.412;2.164;2023-06-05T12:16:57;100391.50;;;26.06;46.87
47154;BME280;32907;41.412;2.164;2023-06-05T12:19:28;100444.31;;;26.32;46.91
47154;BME280;32907;41.412;2.164;2023-06-05T12:22:06;100410.66;;;26.14;46.29
47154;BME280;32907;41.412;2.164;2023-06-05T12:24:34;100423.94;;;26.33;46.62
47154;BME280;32907;41.412;2.164;2023-06-05T12:27:05;100432.94;;;26.42;46.96
47154;BME280;32907;41.412;2.164;2023-06-05T12:29:37;100430.66;;;26.44;47.49
47154;BME280;32907;41.412;2.164;2023-06-05T12:32:22;100429.72;;;26.40;47.33
47154;BME280;32907;41.412;2.164;2023-06-05T12:34:52;100426.97;;;26.40;48.16
47154;BME280;32907;41.412;2.164;2023-06-05T12:37:33;100423.25;;;26.36;48.60
47154;BME280;32907;41.412;2.164;2023-06-05T12:40:06;100395.56;;;26.20;48.53
47154;BME280;32907;41.412;2.164;2023-06-05T12:42:40;100412.47;;;26.31;48.53
47154;BME280;32907;41.412;2.164;2023-06-05T12:45:11;100406.50;;;26.29;48.83
47154;BME280;32907;41.412;2.164;2023-06-05T12:47:40;100421.78;;;26.39;48.80
47154;BME280;32907;41.412;2.164;2023-06-05T12:50:10;100412.00;;;26.29;48.73
47154;BME280;32907;41.412;2.164;2023-06-05T12:52:42;100286.66;;;25.32;48.78
47154;BME280;32907;41.412;2.164;2023-06-05T12:55:11;100338.97;;;25.86;48.93
47154;BME280;32907;41.412;2.164;2023-06-05T12:57:39;100426.97;;;26.40;48.75
47154;BME280;32907;41.412;2.164;2023-06-05T13:00:08;100426.50;;;26.38;49.15
47154;BME280;32907;41.412;2.164;2023-06-05T13:02:43;100316.94;;;25.65;49.63
47154;BME280;32907;41.412;2.164;2023-06-05T13:05:16;100409.31;;;26.20;49.91
47154;BME280;32907;41.412;2.164;2023-06-05T13:07:44;100434.19;;;26.24;49.37
47154;BME280;32907;41.412;2.164;2023-06-05T13:10:12;100429.59;;;26.16;49.64
47154;BME280;32907;41.412;2.164;2023-06-05T13:12:41;100420.72;;;26.10;49.50
47154;BME280;32907;41.412;2.164;2023-06-05T13:15:10;100414.44;;;26.10;49.48
47154;BME280;32907;41.412;2.164;2023-06-05T13:17:38;100411.22;;;26.08;49.72
47154;BME280;32907;41.412;2.164;2023-06-05T13:20:07;100418.38;;;26.21;49.79
47154;BME280;32907;41.412;2.164;2023-06-05T13:22:42;100385.41;;;26.00;50.16
47154;BME280;32907;41.412;2.164;2023-06-05T13:25:10;100406.91;;;26.19;49.94
47154;BME280;32907;41.412;2.164;2023-06-05T13:27:40;100410.13;;;26.21;50.35
47154;BME280;32907;41.412;2.164;2023-06-05T13:30:12;100380.22;;;25.99;50.15
47154;BME280;32907;41.412;2.164;2023-06-05T13:32:40;100413.28;;;26.11;50.61
47154;BME280;32907;41.412;2.164;2023-06-05T13:35:09;100327.06;;;25.53;50.35
47154;BME280;32907;41.412;2.164;2023-06-05T13:37:38;100391.63;;;25.88;50.43
47154;BME280;32907;41.412;2.164;2023-06-05T13:40:06;100404.94;;;25.99;50.49
47154;BME280;32907;41.412;2.164;2023-06-05T13:42:38;100415.09;;;26.07;50.08
47154;BME280;32907;41.412;2.164;2023-06-05T13:45:06;100422.59;;;26.18;49.91